createdAt,value
2023-01-13T01:08:01.046Z,567.00
2023-01-13T01:09:01.027Z,566.00
2023-01-13T01:10:01.008Z,564.00
2023-01-13T01:11:00.963Z,563.00
2023-01-13T01:12:00.963Z,563.00
2023-01-13T01:13:00.954Z,562.00
2023-01-13T01:14:00.901Z,565.00
2023-01-13T01:15:00.875Z,567.00
2023-01-13T01:16:00.856Z,567.00
2023-01-13T01:17:00.814Z,567.00
2023-01-13T01:18:00.806Z,566.00
2023-01-13T01:19:00.778Z,567.00
2023-01-13T01:20:00.740Z,566.00
2023-01-13T01:21:00.727Z,567.00
2023-01-13T01:22:00.731Z,565.00
2023-01-13T01:23:00.676Z,566.00
2023-01-13T01:24:00.675Z,567.00
2023-01-13T01:25:00.624Z,566.00
2023-01-13T01:26:00.604Z,567.00
2023-01-13T01:27:00.606Z,570.00
2023-01-13T01:28:00.574Z,569.00
2023-01-13T01:29:00.562Z,567.00
2023-01-13T01:30:00.526Z,567.00
2023-01-13T01:31:00.579Z,565.00
2023-01-13T01:32:00.473Z,565.00
2023-01-13T01:33:00.468Z,564.00
2023-01-13T01:34:00.445Z,567.00
2023-01-13T01:35:00.436Z,568.00
2023-01-13T01:36:00.388Z,565.00
2023-01-13T01:37:00.361Z,563.00
2023-01-13T01:38:00.367Z,563.00
2023-01-13T01:39:00.315Z,565.00
2023-01-13T01:40:00.291Z,567.00
2023-01-13T01:41:00.308Z,566.00
2023-01-13T01:42:00.255Z,566.00
2023-01-13T01:43:00.208Z,567.00
2023-01-13T01:44:00.486Z,563.00
2023-01-13T01:45:00.179Z,561.00
2023-01-13T01:46:00.147Z,561.00
2023-01-13T01:47:00.216Z,563.00
2023-01-13T01:48:00.128Z,566.00
2023-01-13T01:49:00.117Z,561.00
2023-01-13T01:50:00.076Z,560.00
2023-01-13T01:51:00.040Z,559.00
2023-01-13T01:52:00.047Z,558.00
2023-01-13T01:53:00.012Z,558.00
2023-01-13T01:53:59.976Z,559.00
2023-01-13T01:54:59.948Z,560.00
2023-01-13T01:55:59.945Z,561.00
2023-01-13T01:56:59.908Z,562.00
2023-01-13T01:57:59.885Z,562.00
2023-01-13T01:58:59.872Z,563.00
2023-01-13T01:59:59.854Z,563.00
2023-01-13T02:00:59.966Z,562.00
2023-01-13T02:01:59.896Z,562.00
2023-01-13T02:02:59.845Z,559.00
2023-01-13T02:03:59.784Z,556.00
2023-01-13T02:04:59.755Z,553.00
2023-01-13T02:05:59.755Z,554.00
2023-01-13T02:06:59.713Z,554.00
2023-01-13T02:07:59.721Z,552.00
2023-01-13T02:08:59.709Z,555.00
2023-01-13T02:09:59.657Z,557.00
2023-01-13T02:10:59.642Z,560.00
2023-01-13T02:11:59.639Z,560.00
2023-01-13T02:12:59.630Z,559.00
2023-01-13T02:13:59.599Z,556.00
2023-01-13T02:14:59.598Z,551.00
2023-01-13T02:15:59.627Z,549.00
2023-01-13T02:16:59.555Z,545.00
2023-01-13T02:17:59.524Z,548.00
2023-01-13T02:18:59.506Z,552.00
2023-01-13T02:19:59.482Z,552.00
2023-01-13T02:20:59.449Z,549.00
2023-01-13T02:21:59.425Z,551.00
2023-01-13T02:22:59.405Z,550.00
2023-01-13T02:23:59.405Z,551.00
2023-01-13T02:24:59.372Z,552.00
2023-01-13T02:25:59.341Z,551.00
2023-01-13T02:26:59.326Z,555.00
2023-01-13T02:27:59.329Z,556.00
2023-01-13T02:28:59.289Z,553.00
2023-01-13T02:29:59.261Z,552.00
2023-01-13T02:30:59.258Z,555.00
2023-01-13T02:31:59.212Z,560.00
2023-01-13T02:32:59.189Z,564.00
2023-01-13T02:33:59.190Z,563.00
2023-01-13T02:34:59.146Z,560.00
2023-01-13T02:35:59.125Z,558.00
2023-01-13T02:36:59.100Z,561.00
2023-01-13T02:37:59.084Z,558.00
2023-01-13T02:38:59.048Z,558.00
2023-01-13T02:39:59.034Z,558.00
2023-01-13T02:40:59.017Z,562.00
2023-01-13T02:41:58.998Z,560.00
2023-01-13T02:42:58.983Z,558.00
2023-01-13T02:43:58.940Z,554.00
2023-01-13T02:44:58.918Z,557.00
2023-01-13T03:02:59.125Z,556.00
2023-01-13T07:18:52.552Z,1017.00
2023-01-13T07:50:51.691Z,685.00
2023-01-13T07:51:51.661Z,690.00
2023-01-13T07:52:51.626Z,686.00
2023-01-13T07:53:51.607Z,685.00
2023-01-13T07:54:51.636Z,680.00
2023-01-13T07:55:51.588Z,663.00
2023-01-13T07:56:51.558Z,661.00
2023-01-13T07:57:51.573Z,659.00
2023-01-13T07:58:51.536Z,644.00
2023-01-13T07:59:51.725Z,662.00
2023-01-13T08:00:51.570Z,727.00
2023-01-13T08:01:51.604Z,791.00
2023-01-13T08:02:51.564Z,825.00
2023-01-13T08:30:51.701Z,1170.00
2023-01-13T08:31:51.639Z,1178.00
2023-01-13T08:51:52.069Z,1173.00
2023-01-13T08:52:52.071Z,1177.00
2023-01-13T08:53:52.137Z,1178.00
2023-01-13T08:54:52.136Z,1182.00
2023-01-13T08:55:52.180Z,1181.00
2023-01-13T08:56:52.221Z,1182.00
2023-01-13T08:57:54.453Z,1185.00
2023-01-13T08:58:52.235Z,1193.00
2023-01-13T08:59:52.159Z,1197.00
2023-01-13T09:00:52.236Z,1200.00
2023-01-13T09:01:52.223Z,1195.00
2023-01-13T09:02:52.017Z,1198.00
2023-01-13T09:03:52.003Z,1206.00
2023-01-13T09:04:52.718Z,1220.00
2023-01-13T09:05:52.320Z,1217.00
2023-01-13T09:06:52.745Z,1211.00
2023-01-13T09:07:51.852Z,1217.00
2023-01-13T09:08:51.834Z,1213.00
2023-01-13T09:09:51.825Z,1216.00
2023-01-13T09:10:52.195Z,1218.00
2023-01-13T09:11:52.286Z,1214.00
2023-01-13T09:12:52.267Z,1216.00
2023-01-13T09:13:51.624Z,1216.00
2023-01-13T09:14:51.583Z,1215.00
2023-01-13T09:15:51.627Z,1217.00
2023-01-13T09:16:51.529Z,1222.00
2023-01-13T09:17:51.471Z,1222.00
2023-01-13T09:18:51.461Z,1220.00
2023-01-13T09:19:51.423Z,1205.00
2023-01-13T09:20:51.373Z,1189.00
2023-01-13T09:21:51.411Z,1183.00
2023-01-13T09:22:51.316Z,1173.00
2023-01-13T09:23:51.270Z,1167.00
2023-01-13T09:24:51.247Z,1168.00
2023-01-13T09:25:51.208Z,1167.00
2023-01-13T09:26:51.227Z,1165.00
2023-01-13T09:27:51.152Z,1170.00
2023-01-13T09:28:51.210Z,1176.00
2023-01-13T09:29:51.135Z,1196.00
2023-01-13T09:30:51.190Z,1217.00
2023-01-13T09:31:51.050Z,1259.00
2023-01-13T09:32:51.026Z,1237.00
2023-01-13T09:33:50.995Z,1237.00
2023-01-13T09:34:50.957Z,1247.00
2023-01-13T09:35:50.932Z,1251.00
2023-01-13T09:36:50.919Z,1248.00
2023-01-13T09:37:50.893Z,1251.00
2023-01-13T09:38:50.845Z,1251.00
2023-01-13T09:39:50.812Z,1269.00
2023-01-13T09:40:50.784Z,1253.00
2023-01-13T09:41:50.753Z,1248.00
2023-01-13T09:42:50.744Z,1242.00
2023-01-13T09:43:50.705Z,1220.00
2023-01-13T09:44:50.760Z,1221.00
2023-01-13T09:45:50.670Z,1215.00
2023-01-13T09:46:50.642Z,1202.00
2023-01-13T09:47:50.592Z,1187.00
2023-01-13T09:48:50.561Z,1192.00
2023-01-13T09:49:50.547Z,1197.00
2023-01-13T09:50:50.498Z,1196.00
2023-01-13T09:51:50.541Z,1191.00
2023-01-13T09:52:50.470Z,1173.00
2023-01-13T09:53:50.429Z,1142.00
2023-01-13T09:54:50.423Z,1115.00
2023-01-13T09:55:50.368Z,1105.00
2023-01-13T09:56:50.390Z,1093.00
2023-01-13T09:57:50.346Z,1089.00
2023-01-13T09:58:50.327Z,1086.00
2023-01-13T09:59:50.295Z,1085.00
2023-01-13T10:00:50.249Z,1087.00
2023-01-13T10:01:50.208Z,1090.00
2023-01-13T10:02:50.183Z,1093.00
2023-01-13T10:03:50.267Z,1097.00
2023-01-13T10:04:50.163Z,1091.00
2023-01-13T10:05:50.128Z,1087.00
2023-01-13T10:06:50.098Z,1068.00
2023-01-13T10:07:50.042Z,1073.00
2023-01-13T10:08:50.015Z,1078.00
2023-01-13T10:09:50.002Z,1079.00
2023-01-13T10:10:49.989Z,1079.00
2023-01-13T10:11:50.000Z,1080.00
2023-01-13T10:12:49.904Z,1076.00
2023-01-13T10:13:49.870Z,1070.00
2023-01-13T10:14:49.884Z,1049.00
2023-01-13T10:15:49.855Z,1022.00
2023-01-13T10:16:49.782Z,1007.00
2023-01-13T10:17:49.760Z,990.00
2023-01-13T10:18:49.770Z,949.00
2023-01-13T10:19:49.701Z,944.00
2023-01-13T10:20:49.690Z,939.00
2023-01-13T10:21:49.614Z,933.00
2023-01-13T10:22:49.600Z,925.00
2023-01-13T10:23:49.575Z,917.00
2023-01-13T10:24:49.531Z,915.00
2023-01-13T10:25:49.520Z,919.00
2023-01-13T10:26:49.553Z,920.00
2023-01-13T10:27:49.456Z,920.00
2023-01-13T10:28:49.474Z,919.00
2023-01-13T10:29:49.400Z,916.00
2023-01-13T10:30:49.487Z,920.00
2023-01-13T10:31:49.314Z,924.00
2023-01-13T10:32:49.349Z,924.00
2023-01-13T10:33:49.292Z,922.00
2023-01-13T10:34:49.269Z,925.00
2023-01-13T10:35:49.275Z,926.00
2023-01-13T10:36:49.230Z,931.00
2023-01-13T10:37:49.147Z,929.00
2023-01-13T10:38:49.135Z,929.00
2023-01-13T10:39:49.829Z,930.00
2023-01-13T10:40:49.104Z,931.00
2023-01-13T10:41:49.029Z,931.00
2023-01-13T10:42:48.996Z,939.00
2023-01-13T10:43:48.972Z,929.00
2023-01-13T10:44:48.945Z,930.00
2023-01-13T10:45:48.951Z,809.00
